Time;durP1;ratioP1;P1;durP2;ratioP2;P2;SDS_P1;SDS_P2;PMS_P1;PMS_P2;Temp;Humidity;BMP_temperature;BMP_pressure;BME280_temperature;BME280_humidity;BME280_pressure;Samples;Min_cycle;Max_cycle;Signal;HPM_P1;HPM_P2
2022/01/19 00:00:23;;;;;;;21.98;12.27;;;;;;;;;;5044864;28;20025;-57
2022/01/19 00:02:49;;;;;;;19.48;11.57;;;;;;;;;;5045788;28;20106;-57
2022/01/19 00:05:15;;;;;;;19.52;11.00;;;;;;;;;;5046017;28;20476;-57
2022/01/19 00:07:41;;;;;;;20.33;12.35;;;;;;;;;;5046668;28;20353;-57
2022/01/19 00:10:10;;;;;;;20.30;11.77;;;;;;;;;;5046023;28;20017;-57
2022/01/19 00:12:38;;;;;;;20.48;12.60;;;;;;;;;;5046196;28;20445;-57
2022/01/19 00:15:06;;;;;;;21.05;12.18;;;;;;;;;;5045795;28;20496;-57
2022/01/19 00:17:32;;;;;;;24.25;12.90;;;;;;;;;;5045242;28;20091;-57
2022/01/19 00:19:58;;;;;;;23.17;13.02;;;;;;;;;;5045724;28;20495;-57
2022/01/19 00:22:24;;;;;;;24.02;13.20;;;;;;;;;;5045244;28;20036;-57
2022/01/19 00:24:50;;;;;;;24.70;13.05;;;;;;;;;;5045758;28;20060;-57
2022/01/19 00:27:16;;;;;;;23.48;12.55;;;;;;;;;;5045176;28;20071;-57
2022/01/19 00:29:42;;;;;;;22.30;13.07;;;;;;;;;;5046143;28;20029;-57
2022/01/19 00:32:09;;;;;;;24.95;14.00;;;;;;;;;;5045096;28;20025;-57
2022/01/19 00:34:36;;;;;;;26.60;14.50;;;;;;;;;;5045274;28;20025;-56
2022/01/19 00:37:02;;;;;;;23.55;13.30;;;;;;;;;;5045385;28;20021;-55
2022/01/19 00:39:31;;;;;;;23.38;12.82;;;;;;;;;;5045041;28;20025;-57
2022/01/19 00:41:58;;;;;;;21.98;12.55;;;;;;;;;;5045207;28;20511;-57
2022/01/19 00:44:24;;;;;;;23.30;12.75;;;;;;;;;;5044945;28;20028;-57
2022/01/19 00:46:50;;;;;;;19.27;11.50;;;;;;;;;;5044927;28;20032;-57
2022/01/19 00:49:16;;;;;;;20.88;12.45;;;;;;;;;;5045138;28;20385;-57
2022/01/19 00:51:42;;;;;;;20.95;11.80;;;;;;;;;;5045269;28;20029;-57
2022/01/19 00:54:08;;;;;;;20.90;12.30;;;;;;;;;;5041358;28;20020;-57
2022/01/19 00:56:34;;;;;;;22.15;12.23;;;;;;;;;;5044817;28;20440;-57
2022/01/19 00:59:01;;;;;;;20.13;12.25;;;;;;;;;;5044802;28;20652;-56
2022/01/19 01:01:28;;;;;;;21.02;11.77;;;;;;;;;;5042205;28;20036;-57
2022/01/19 01:03:54;;;;;;;21.23;12.35;;;;;;;;;;5042335;28;20512;-57
2022/01/19 01:06:21;;;;;;;21.90;12.77;;;;;;;;;;5036911;28;20443;-58
2022/01/19 01:08:47;;;;;;;23.17;12.80;;;;;;;;;;5035915;28;20029;-57
2022/01/19 01:11:13;;;;;;;22.25;12.38;;;;;;;;;;5045060;28;20111;-57
2022/01/19 01:18:57;;;;;;;23.50;13.33;;;;;;;;;;5041571;28;20519;-57
2022/01/19 01:21:24;;;;;;;26.15;13.45;;;;;;;;;;5024566;28;20057;-57
2022/01/19 01:23:51;;;;;;;25.30;13.75;;;;;;;;;;5024860;28;20033;-57
2022/01/19 01:26:18;;;;;;;25.73;14.68;;;;;;;;;;5024735;28;20025;-57
2022/01/19 01:28:45;;;;;;;24.45;13.38;;;;;;;;;;5025533;28;20037;-57
2022/01/19 01:31:11;;;;;;;26.95;14.15;;;;;;;;;;5025403;28;20429;-57
2022/01/19 01:33:38;;;;;;;23.38;13.70;;;;;;;;;;5027066;28;20070;-56
2022/01/19 01:36:06;;;;;;;24.90;13.98;;;;;;;;;;5044828;28;20135;-56
2022/01/19 01:38:33;;;;;;;22.80;13.15;;;;;;;;;;5044270;28;20064;-57
2022/01/19 01:40:59;;;;;;;22.58;12.77;;;;;;;;;;5044557;28;20565;-57
2022/01/19 01:43:25;;;;;;;23.40;13.50;;;;;;;;;;5044397;28;20536;-57
2022/01/19 01:45:56;;;;;;;21.50;12.52;;;;;;;;;;5044481;28;20052;-57
2022/01/19 01:48:25;;;;;;;22.80;13.63;;;;;;;;;;5043140;28;20025;-57
2022/01/19 01:53:37;;;;;;;25.02;14.18;;;;;;;;;;5032858;28;20083;-57
2022/01/19 01:56:07;;;;;;;23.15;13.85;;;;;;;;;;5024679;28;20017;-57
2022/01/19 01:58:35;;;;;;;26.08;13.98;;;;;;;;;;5024230;28;20071;-57
2022/01/19 02:01:01;;;;;;;25.15;13.95;;;;;;;;;;5041792;28;20033;-57
2022/01/19 02:03:28;;;;;;;23.63;12.57;;;;;;;;;;5044585;28;20075;-57
2022/01/19 02:09:18;;;;;;;25.40;13.77;;;;;;;;;;5017216;28;20552;-57
2022/01/19 02:23:01;;;;;;;21.15;12.70;;;;;;;;;;5047951;28;20036;-57
2022/01/19 02:25:34;;;;;;;18.50;11.52;;;;;;;;;;5047953;28;20107;-57
2022/01/19 02:41:41;;;;;;;22.67;13.70;;;;;;;;;;5047596;28;20121;-57
2022/01/19 02:44:10;;;;;;;21.02;12.32;;;;;;;;;;5047671;28;20032;-57
2022/01/19 02:49:14;;;;;;;23.58;13.30;;;;;;;;;;5047549;28;20415;-57
2022/01/19 02:49:41;;;;;;;27.03;14.20;;;;;;;;;;5029389;28;20061;-57
2022/01/19 02:52:07;;;;;;;25.90;14.15;;;;;;;;;;5045662;28;20037;-57
2022/01/19 02:54:34;;;;;;;23.40;13.63;;;;;;;;;;5047386;28;20025;-58
2022/01/19 02:57:02;;;;;;;25.63;14.50;;;;;;;;;;5047307;28;20024;-57
2022/01/19 03:10:14;;;;;;;25.42;15.30;;;;;;;;;;5047388;28;20036;-57
2022/01/19 03:12:40;;;;;;;32.88;17.85;;;;;;;;;;5047354;28;20465;-57
2022/01/19 03:15:10;;;;;;;31.98;16.20;;;;;;;;;;5042120;28;20081;-57
2022/01/19 03:17:37;;;;;;;29.15;16.20;;;;;;;;;;5027157;28;20033;-57
2022/01/19 03:20:04;;;;;;;26.85;15.95;;;;;;;;;;5044235;28;20021;-57
2022/01/19 03:22:40;;;;;;;25.38;14.95;;;;;;;;;;5046551;28;20028;-57
2022/01/19 03:25:12;;;;;;;27.85;14.65;;;;;;;;;;5046753;28;20021;-57
2022/01/19 03:27:39;;;;;;;25.92;14.25;;;;;;;;;;5047080;28;20063;-57
2022/01/19 03:30:06;;;;;;;26.60;14.63;;;;;;;;;;5045432;28;20587;-57
2022/01/19 03:32:32;;;;;;;26.10;14.07;;;;;;;;;;5046066;28;20488;-57
2022/01/19 03:34:58;;;;;;;23.17;12.60;;;;;;;;;;5046796;28;20104;-62
2022/01/19 03:37:25;;;;;;;22.33;12.95;;;;;;;;;;5046333;28;20514;-57
2022/01/19 03:39:51;;;;;;;23.88;13.52;;;;;;;;;;5045596;28;20061;-57
2022/01/19 03:42:18;;;;;;;24.45;14.10;;;;;;;;;;5046344;28;20564;-57
2022/01/19 03:44:44;;;;;;;25.45;13.98;;;;;;;;;;5046765;28;20021;-57
2022/01/19 03:47:10;;;;;;;25.83;15.43;;;;;;;;;;5046843;28;20571;-57
2022/01/19 03:49:36;;;;;;;28.63;14.50;;;;;;;;;;5033532;28;20037;-57
2022/01/19 03:52:05;;;;;;;26.95;14.02;;;;;;;;;;5026091;28;20107;-57
2022/01/19 03:54:42;;;;;;;24.73;13.63;;;;;;;;;;5026330;28;20029;-57
2022/01/19 03:57:08;;;;;;;25.10;14.70;;;;;;;;;;5026223;28;20052;-57
2022/01/19 03:59:34;;;;;;;27.02;14.60;;;;;;;;;;5036739;28;20092;-57
2022/01/19 04:02:02;;;;;;;25.88;13.68;;;;;;;;;;5046168;28;20128;-57
2022/01/19 04:07:07;;;;;;;24.58;13.93;;;;;;;;;;5045789;28;20063;-57
2022/01/19 04:09:35;;;;;;;23.25;13.80;;;;;;;;;;5044948;28;20040;-57
2022/01/19 04:12:02;;;;;;;24.52;13.88;;;;;;;;;;5045671;28;20059;-57
2022/01/19 04:14:28;;;;;;;21.98;12.35;;;;;;;;;;5045552;28;20032;-57
2022/01/19 04:16:59;;;;;;;25.08;13.40;;;;;;;;;;5044691;28;20048;-57
2022/01/19 04:21:52;;;;;;;21.00;11.65;;;;;;;;;;5045420;28;20060;-57
2022/01/19 04:24:20;;;;;;;23.98;12.68;;;;;;;;;;5045516;28;20106;-57
2022/01/19 04:26:50;;;;;;;21.25;12.43;;;;;;;;;;5044127;28;20512;-57
2022/01/19 04:29:17;;;;;;;24.88;12.93;;;;;;;;;;5041206;28;20025;-57
2022/01/19 04:31:43;;;;;;;19.98;12.07;;;;;;;;;;5045763;28;20033;-57
2022/01/19 04:34:13;;;;;;;23.17;12.77;;;;;;;;;;5045597;28;20151;-57
2022/01/19 04:44:39;;;;;;;23.05;13.18;;;;;;;;;;5044974;28;20082;-57
2022/01/19 05:06:10;;;;;;;22.88;13.15;;;;;;;;;;5025335;28;20409;-57
2022/01/19 05:08:51;;;;;;;20.58;12.32;;;;;;;;;;5025165;28;20041;-57
2022/01/19 05:14:03;;;;;;;22.88;12.82;;;;;;;;;;5044896;28;20048;-57
2022/01/19 05:16:30;;;;;;;23.00;13.38;;;;;;;;;;5044911;28;20021;-57
2022/01/19 05:18:56;;;;;;;23.65;13.65;;;;;;;;;;5044014;28;20017;-57
2022/01/19 05:21:22;;;;;;;24.92;13.88;;;;;;;;;;5044454;28;20033;-57
2022/01/19 05:23:49;;;;;;;23.77;13.93;;;;;;;;;;5044242;28;20036;-57
2022/01/19 05:26:15;;;;;;;25.73;14.23;;;;;;;;;;5044674;28;20503;-58
2022/01/19 05:28:42;;;;;;;24.27;13.88;;;;;;;;;;5042566;28;20228;-57
2022/01/19 05:31:08;;;;;;;26.40;15.07;;;;;;;;;;5044449;28;20440;-57
2022/01/19 05:33:34;;;;;;;27.05;15.65;;;;;;;;;;5044429;28;20484;-57
2022/01/19 05:36:02;;;;;;;26.65;14.70;;;;;;;;;;5042778;28;20021;-57
2022/01/19 05:38:28;;;;;;;30.48;15.65;;;;;;;;;;5046158;28;20108;-57
2022/01/19 05:40:54;;;;;;;30.83;16.25;;;;;;;;;;5050940;28;20606;-57
2022/01/19 05:43:22;;;;;;;32.05;16.98;;;;;;;;;;5051007;28;20052;-57
2022/01/19 05:45:49;;;;;;;39.47;17.52;;;;;;;;;;5041853;28;20517;-57
2022/01/19 05:48:15;;;;;;;35.38;18.70;;;;;;;;;;5049222;28;20086;-57
2022/01/19 05:50:41;;;;;;;36.90;18.50;;;;;;;;;;5050361;28;20032;-56
2022/01/19 05:53:07;;;;;;;37.50;18.00;;;;;;;;;;5051149;28;20079;-57
2022/01/19 05:55:34;;;;;;;40.33;19.02;;;;;;;;;;5050028;28;20424;-57
2022/01/19 05:58:00;;;;;;;38.50;19.52;;;;;;;;;;5050951;28;20036;-57
2022/01/19 06:00:26;;;;;;;39.05;19.13;;;;;;;;;;5050820;28;20029;-57
2022/01/19 06:02:52;;;;;;;39.60;19.70;;;;;;;;;;5050649;28;20029;-57
2022/01/19 06:05:19;;;;;;;36.15;18.27;;;;;;;;;;5050184;28;20536;-57
2022/01/19 06:07:47;;;;;;;35.28;18.48;;;;;;;;;;5050454;28;20048;-57
2022/01/19 06:10:42;;;;;;;29.55;17.15;;;;;;;;;;5051601;28;20021;-57
2022/01/19 06:13:02;;;;;;;34.13;17.90;;;;;;;;;;5050481;28;20047;-57
2022/01/19 06:15:28;;;;;;;35.42;18.30;;;;;;;;;;5050014;28;20036;-57
2022/01/19 06:17:55;;;;;;;31.83;16.60;;;;;;;;;;5050500;28;20033;-57
2022/01/19 06:20:21;;;;;;;30.67;17.25;;;;;;;;;;5051012;28;20506;-57
2022/01/19 06:22:47;;;;;;;30.00;17.00;;;;;;;;;;5050491;28;20407;-57
2022/01/19 06:25:13;;;;;;;29.08;15.60;;;;;;;;;;5049116;28;20033;-57
2022/01/19 06:27:39;;;;;;;26.08;15.32;;;;;;;;;;5050715;28;20025;-58
2022/01/19 06:30:05;;;;;;;27.15;15.23;;;;;;;;;;5031895;28;20707;-58
2022/01/19 06:32:31;;;;;;;27.63;15.45;;;;;;;;;;5030990;28;20060;-58
2022/01/19 06:34:57;;;;;;;28.95;15.65;;;;;;;;;;5051753;28;20437;-58
2022/01/19 06:37:23;;;;;;;32.33;16.10;;;;;;;;;;5047077;28;20468;-58
2022/01/19 06:39:52;;;;;;;30.52;16.38;;;;;;;;;;5049385;28;20075;-58
2022/01/19 06:42:18;;;;;;;32.10;17.50;;;;;;;;;;5054255;28;20047;-57
2022/01/19 06:44:44;;;;;;;32.42;18.08;;;;;;;;;;5072262;28;20514;-57
2022/01/19 06:47:10;;;;;;;30.73;17.02;;;;;;;;;;5063148;28;20044;-58
2022/01/19 06:49:36;;;;;;;31.52;17.13;;;;;;;;;;5031403;28;20057;-57
2022/01/19 06:52:02;;;;;;;29.98;16.27;;;;;;;;;;5041968;28;20061;-58
2022/01/19 06:54:29;;;;;;;31.52;17.08;;;;;;;;;;5048044;28;20040;-58
2022/01/19 06:56:55;;;;;;;31.30;17.70;;;;;;;;;;5047646;28;20024;-58
2022/01/19 06:59:21;;;;;;;30.75;17.00;;;;;;;;;;5028608;28;20516;-58
2022/01/19 07:01:47;;;;;;;31.55;16.83;;;;;;;;;;5040086;28;20583;-58
2022/01/19 07:04:16;;;;;;;34.63;18.70;;;;;;;;;;5049519;28;20437;-58
2022/01/19 07:06:42;;;;;;;33.90;18.30;;;;;;;;;;5049091;28;20457;-57
2022/01/19 07:09:09;;;;;;;35.72;18.95;;;;;;;;;;5028649;28;20037;-58
2022/01/19 07:11:36;;;;;;;36.72;17.83;;;;;;;;;;5046065;28;20141;-58
2022/01/19 07:14:02;;;;;;;50.17;22.00;;;;;;;;;;5048052;28;20052;-58
2022/01/19 07:16:28;;;;;;;67.07;28.10;;;;;;;;;;5048422;28;20044;-58
2022/01/19 07:18:54;;;;;;;84.35;30.15;;;;;;;;;;5047116;28;20100;-58
2022/01/19 07:21:20;;;;;;;85.95;32.90;;;;;;;;;;5048405;28;20032;-58
2022/01/19 07:23:46;;;;;;;80.95;29.75;;;;;;;;;;5046550;28;20436;-58
2022/01/19 07:26:14;;;;;;;69.95;28.50;;;;;;;;;;5047064;28;20321;-59
2022/01/19 07:28:41;;;;;;;53.83;24.25;;;;;;;;;;5045869;28;20036;-58
2022/01/19 07:31:07;;;;;;;51.45;23.15;;;;;;;;;;5032560;28;20033;-59
2022/01/19 07:33:33;;;;;;;44.17;20.30;;;;;;;;;;5026409;28;20430;-59
2022/01/19 07:35:59;;;;;;;42.95;18.85;;;;;;;;;;5031194;28;20036;-58
2022/01/19 07:38:26;;;;;;;38.13;17.98;;;;;;;;;;5043646;28;20496;-58
2022/01/19 07:40:53;;;;;;;36.58;18.10;;;;;;;;;;5043847;28;20034;-59
2022/01/19 07:43:19;;;;;;;39.00;18.33;;;;;;;;;;5042241;28;20037;-58
2022/01/19 07:45:45;;;;;;;38.03;18.88;;;;;;;;;;5038964;28;20525;-59
2022/01/19 07:48:11;;;;;;;36.17;17.98;;;;;;;;;;5037510;28;20078;-58
2022/01/19 07:50:38;;;;;;;36.85;17.88;;;;;;;;;;5043933;28;20033;-58
2022/01/19 07:53:04;;;;;;;35.30;17.98;;;;;;;;;;5038457;28;20035;-59
2022/01/19 07:55:30;;;;;;;33.75;16.95;;;;;;;;;;5032838;28;20025;-59
2022/01/19 07:57:57;;;;;;;36.72;17.92;;;;;;;;;;5046850;28;20033;-59
2022/01/19 08:00:23;;;;;;;34.38;17.17;;;;;;;;;;5050264;28;20029;-58
2022/01/19 08:02:50;;;;;;;35.88;16.73;;;;;;;;;;5044503;28;20397;-59
2022/01/19 08:05:17;;;;;;;35.58;17.52;;;;;;;;;;5046557;28;20033;-59
2022/01/19 08:07:43;;;;;;;35.95;16.80;;;;;;;;;;5047525;28;20300;-59
2022/01/19 08:10:10;;;;;;;33.10;17.83;;;;;;;;;;5047204;28;20059;-59
2022/01/19 08:12:37;;;;;;;38.05;18.65;;;;;;;;;;5045494;28;20036;-59
2022/01/19 08:15:04;;;;;;;34.53;17.85;;;;;;;;;;5047133;28;20025;-59
2022/01/19 08:17:30;;;;;;;38.60;18.33;;;;;;;;;;5043234;28;20025;-59
2022/01/19 08:19:56;;;;;;;36.65;17.08;;;;;;;;;;5037896;28;20393;-59
2022/01/19 08:22:22;;;;;;;34.83;18.00;;;;;;;;;;5028020;28;20040;-59
2022/01/19 08:24:49;;;;;;;38.95;18.05;;;;;;;;;;5031508;28;20029;-59
2022/01/19 08:27:15;;;;;;;38.92;18.35;;;;;;;;;;5047471;28;20037;-59
2022/01/19 08:29:41;;;;;;;40.78;19.23;;;;;;;;;;5048233;28;20029;-59
2022/01/19 08:32:07;;;;;;;43.13;20.92;;;;;;;;;;5046469;28;20090;-59
2022/01/19 08:34:34;;;;;;;46.30;21.98;;;;;;;;;;5046381;28;20388;-60
2022/01/19 08:37:00;;;;;;;44.08;20.30;;;;;;;;;;5046326;28;20411;-57
2022/01/19 08:39:27;;;;;;;52.60;23.50;;;;;;;;;;5045957;28;20028;-57
2022/01/19 08:41:54;;;;;;;46.25;21.42;;;;;;;;;;5046748;28;20041;-60
2022/01/19 08:44:21;;;;;;;42.78;21.02;;;;;;;;;;5044869;28;20035;-58
2022/01/19 08:46:48;;;;;;;45.65;21.42;;;;;;;;;;5046072;28;20111;-58
2022/01/19 08:49:15;;;;;;;44.00;20.55;;;;;;;;;;5046722;28;20045;-58
2022/01/19 08:51:41;;;;;;;39.25;19.45;;;;;;;;;;5046010;28;20037;-58
2022/01/19 08:54:07;;;;;;;43.67;21.33;;;;;;;;;;5040373;28;20096;-58
2022/01/19 08:56:33;;;;;;;37.92;18.70;;;;;;;;;;5049348;28;20033;-58
2022/01/19 08:59:00;;;;;;;38.55;19.30;;;;;;;;;;5047174;28;20025;-58
2022/01/19 09:01:26;;;;;;;36.83;17.90;;;;;;;;;;5047056;28;20029;-58
2022/01/19 09:03:52;;;;;;;36.45;19.30;;;;;;;;;;5046853;28;20130;-58
2022/01/19 09:06:19;;;;;;;37.53;18.27;;;;;;;;;;5045425;28;20124;-59
2022/01/19 09:08:45;;;;;;;34.95;17.83;;;;;;;;;;5042908;28;20072;-58
2022/01/19 09:11:12;;;;;;;36.65;18.38;;;;;;;;;;5046398;28;20123;-58
2022/01/19 09:13:38;;;;;;;38.85;18.63;;;;;;;;;;5043892;28;20025;-58
2022/01/19 09:16:05;;;;;;;38.28;18.73;;;;;;;;;;5044818;28;20397;-58
2022/01/19 09:18:31;;;;;;;35.85;17.92;;;;;;;;;;5045958;28;20465;-59
2022/01/19 09:20:57;;;;;;;35.58;17.40;;;;;;;;;;5042755;28;20059;-58
2022/01/19 09:23:23;;;;;;;35.97;18.52;;;;;;;;;;5044891;28;20450;-58
2022/01/19 09:25:49;;;;;;;32.63;17.90;;;;;;;;;;5043787;28;20444;-58
2022/01/19 09:28:17;;;;;;;36.67;17.83;;;;;;;;;;5035865;28;20043;-58
2022/01/19 09:30:45;;;;;;;34.13;18.08;;;;;;;;;;5044905;28;20033;-58
2022/01/19 09:33:19;;;;;;;40.60;19.58;;;;;;;;;;5044983;28;20056;-58
2022/01/19 09:38:25;;;;;;;40.58;19.90;;;;;;;;;;5046253;28;19999;-58
2022/01/19 09:40:51;;;;;;;40.22;18.20;;;;;;;;;;5044754;28;20025;-58
2022/01/19 09:43:21;;;;;;;39.63;20.60;;;;;;;;;;5043047;28;20025;-59
2022/01/19 09:45:47;;;;;;;42.17;20.67;;;;;;;;;;5044758;28;20087;-58
2022/01/19 09:48:15;;;;;;;43.00;21.98;;;;;;;;;;5045314;28;20029;-58
2022/01/19 09:50:41;;;;;;;41.47;19.95;;;;;;;;;;5044580;28;20116;-58
2022/01/19 09:53:07;;;;;;;41.28;22.20;;;;;;;;;;5042198;28;20052;-58
2022/01/19 09:55:35;;;;;;;45.08;21.90;;;;;;;;;;5043805;28;20021;-59
2022/01/19 09:58:02;;;;;;;43.22;21.23;;;;;;;;;;5041671;28;20029;-58
2022/01/19 10:00:28;;;;;;;42.88;20.73;;;;;;;;;;5044389;28;20025;-58
2022/01/19 10:03:13;;;;;;;45.97;22.88;;;;;;;;;;5043783;28;20021;-58
2022/01/19 10:05:58;;;;;;;45.75;22.27;;;;;;;;;;5026416;28;20103;-58
2022/01/19 10:08:27;;;;;;;47.58;23.45;;;;;;;;;;5024772;28;20112;-58
2022/01/19 10:11:21;;;;;;;42.58;19.92;;;;;;;;;;5038608;28;20527;-58
2022/01/19 10:17:00;;;;;;;39.45;20.25;;;;;;;;;;5042834;28;20566;-58
2022/01/19 10:19:30;;;;;;;50.13;22.95;;;;;;;;;;5043039;28;20025;-58
2022/01/19 10:21:56;;;;;;;43.75;20.58;;;;;;;;;;5042145;28;20420;-58
2022/01/19 10:24:46;;;;;;;36.70;18.85;;;;;;;;;;5044555;28;20029;-58
2022/01/19 10:27:28;;;;;;;38.95;19.35;;;;;;;;;;5047772;28;20626;-58
2022/01/19 10:29:57;;;;;;;47.83;22.52;;;;;;;;;;5047456;28;20518;-58
2022/01/19 10:32:24;;;;;;;42.53;21.90;;;;;;;;;;5038808;28;20036;-58
2022/01/19 10:34:52;;;;;;;43.00;22.92;;;;;;;;;;5038329;28;20037;-58
2022/01/19 10:37:22;;;;;;;42.45;21.10;;;;;;;;;;5048007;28;20016;-58
2022/01/19 10:39:49;;;;;;;38.70;20.27;;;;;;;;;;5047513;28;20340;-58
2022/01/19 10:42:27;;;;;;;35.33;18.60;;;;;;;;;;5042804;28;20033;-58
2022/01/19 10:45:00;;;;;;;36.55;18.33;;;;;;;;;;5041835;28;20033;-58
2022/01/19 10:47:47;;;;;;;33.03;16.85;;;;;;;;;;5039893;28;20508;-56
2022/01/19 10:50:14;;;;;;;35.83;17.75;;;;;;;;;;5047920;28;20753;-58
2022/01/19 10:52:44;;;;;;;34.17;16.85;;;;;;;;;;5043694;28;20504;-58
2022/01/19 10:55:25;;;;;;;30.10;15.75;;;;;;;;;;5028742;28;20037;-58
2022/01/19 10:57:51;;;;;;;32.65;18.17;;;;;;;;;;5035527;28;20101;-58
2022/01/19 11:00:24;;;;;;;39.10;20.10;;;;;;;;;;5043669;28;20032;-58
2022/01/19 11:02:54;;;;;;;37.05;19.33;;;;;;;;;;5028482;28;20030;-58
2022/01/19 11:05:40;;;;;;;35.13;17.48;;;;;;;;;;5048357;28;20083;-58
2022/01/19 11:08:06;;;;;;;34.88;17.85;;;;;;;;;;5049294;28;20059;-58
2022/01/19 11:10:32;;;;;;;31.15;16.65;;;;;;;;;;5043396;28;20138;-57
2022/01/19 11:12:59;;;;;;;30.95;15.93;;;;;;;;;;5028795;28;20666;-58
2022/01/19 11:15:25;;;;;;;33.92;17.85;;;;;;;;;;5026721;28;20068;-57
2022/01/19 11:17:51;;;;;;;32.53;17.67;;;;;;;;;;5028338;28;20043;-58
2022/01/19 11:20:23;;;;;;;29.15;15.85;;;;;;;;;;5042806;28;20087;-58
2022/01/19 11:22:52;;;;;;;33.22;16.75;;;;;;;;;;5047379;28;20120;-58
2022/01/19 11:25:31;;;;;;;33.88;17.60;;;;;;;;;;5030902;28;20065;-58
2022/01/19 11:27:57;;;;;;;33.20;17.55;;;;;;;;;;5028099;28;20041;-57
2022/01/19 11:30:35;;;;;;;32.95;16.85;;;;;;;;;;5026905;28;20041;-58
2022/01/19 11:33:10;;;;;;;36.70;18.50;;;;;;;;;;5026633;28;20030;-57
2022/01/19 11:35:37;;;;;;;45.28;21.98;;;;;;;;;;5027195;28;20033;-57
2022/01/19 11:38:24;;;;;;;43.40;21.40;;;;;;;;;;5025989;28;20033;-58
2022/01/19 11:40:50;;;;;;;46.45;21.83;;;;;;;;;;5025185;28;20049;-57
2022/01/19 11:43:18;;;;;;;37.47;20.17;;;;;;;;;;5047999;28;20025;-57
2022/01/19 11:45:44;;;;;;;36.42;17.77;;;;;;;;;;5047640;28;20039;-57
2022/01/19 11:48:14;;;;;;;34.53;17.70;;;;;;;;;;5046137;28;20029;-57
2022/01/19 11:50:40;;;;;;;34.20;17.30;;;;;;;;;;5056360;28;20071;-56
2022/01/19 11:53:11;;;;;;;34.22;17.92;;;;;;;;;;5053109;28;20032;-57
2022/01/19 11:55:38;;;;;;;33.33;17.90;;;;;;;;;;5054236;28;20034;-57
2022/01/19 11:58:15;;;;;;;42.90;20.92;;;;;;;;;;5042243;28;20033;-57
2022/01/19 12:00:42;;;;;;;37.42;20.23;;;;;;;;;;5048024;28;20072;-57
2022/01/19 12:03:28;;;;;;;36.78;19.00;;;;;;;;;;5055892;28;20029;-57
2022/01/19 12:05:55;;;;;;;37.13;19.77;;;;;;;;;;5051849;28;20029;-57
2022/01/19 12:08:24;;;;;;;34.03;18.00;;;;;;;;;;5056907;28;20071;-56
2022/01/19 12:10:52;;;;;;;30.35;16.10;;;;;;;;;;5048951;28;20126;-57
2022/01/19 12:16:18;;;;;;;28.90;14.98;;;;;;;;;;5039083;28;20072;-57
2022/01/19 12:18:47;;;;;;;28.88;15.25;;;;;;;;;;5055679;28;20059;-56
2022/01/19 12:21:15;;;;;;;26.63;14.38;;;;;;;;;;5034936;28;20029;-57
2022/01/19 12:23:43;;;;;;;32.60;16.80;;;;;;;;;;5039849;28;20032;-56
2022/01/19 12:26:10;;;;;;;32.30;17.10;;;;;;;;;;5032131;28;20400;-57
2022/01/19 12:28:55;;;;;;;29.27;16.08;;;;;;;;;;5026158;28;20048;-57
2022/01/19 12:31:31;;;;;;;29.23;15.70;;;;;;;;;;5046180;28;20567;-57
2022/01/19 12:34:03;;;;;;;29.67;14.70;;;;;;;;;;5046586;28;20021;-57
2022/01/19 12:36:47;;;;;;;34.45;16.02;;;;;;;;;;5045920;28;20568;-57
2022/01/19 12:39:28;;;;;;;30.05;14.73;;;;;;;;;;5023982;28;20035;-57
2022/01/19 12:42:00;;;;;;;29.85;14.70;;;;;;;;;;5043659;28;20047;-58
2022/01/19 12:44:35;;;;;;;28.88;14.38;;;;;;;;;;5066544;28;20052;-57
2022/01/19 12:47:05;;;;;;;27.67;14.35;;;;;;;;;;5053768;28;20038;-57
2022/01/19 12:49:32;;;;;;;27.55;13.77;;;;;;;;;;5047129;28;20040;-57
2022/01/19 12:52:00;;;;;;;28.48;14.13;;;;;;;;;;5046690;28;20029;-57
2022/01/19 12:54:28;;;;;;;25.10;13.15;;;;;;;;;;5047025;28;20409;-57
2022/01/19 12:56:55;;;;;;;24.70;13.68;;;;;;;;;;5046710;28;20059;-57
2022/01/19 12:59:21;;;;;;;34.30;15.52;;;;;;;;;;5043428;28;20037;-57
2022/01/19 13:01:47;;;;;;;30.33;14.93;;;;;;;;;;5047422;28;20550;-57
2022/01/19 13:04:27;;;;;;;29.00;15.02;;;;;;;;;;5047151;28;20111;-57
2022/01/19 13:06:55;;;;;;;27.60;13.85;;;;;;;;;;5046827;28;20037;-57
2022/01/19 13:09:37;;;;;;;27.83;14.02;;;;;;;;;;5046566;28;20114;-57
2022/01/19 13:12:15;;;;;;;27.27;14.05;;;;;;;;;;5045406;28;20021;-57
2022/01/19 13:14:41;;;;;;;24.10;12.63;;;;;;;;;;5045225;28;20389;-57
2022/01/19 13:17:07;;;;;;;21.90;11.73;;;;;;;;;;5045733;28;20025;-57
2022/01/19 13:19:34;;;;;;;21.85;11.70;;;;;;;;;;5042951;28;20028;-57
2022/01/19 13:22:06;;;;;;;22.88;11.95;;;;;;;;;;5044601;28;20044;-57
2022/01/19 13:24:34;;;;;;;21.05;11.38;;;;;;;;;;5043371;28;20021;-57
2022/01/19 13:27:04;;;;;;;20.52;11.77;;;;;;;;;;5044083;28;20029;-57
2022/01/19 13:29:34;;;;;;;20.38;11.57;;;;;;;;;;5043733;28;20033;-57
2022/01/19 13:32:11;;;;;;;18.30;9.85;;;;;;;;;;5043534;28;20037;-57
2022/01/19 13:34:58;;;;;;;21.13;11.50;;;;;;;;;;5043006;28;20021;-57
2022/01/19 13:37:30;;;;;;;21.20;11.10;;;;;;;;;;5043766;28;20025;-57
2022/01/19 13:39:59;;;;;;;19.00;11.07;;;;;;;;;;5043943;28;20025;-57
2022/01/19 13:42:37;;;;;;;20.35;11.45;;;;;;;;;;5043062;28;20494;-57
2022/01/19 13:45:09;;;;;;;18.75;10.80;;;;;;;;;;5043896;28;20112;-57
2022/01/19 13:48:05;;;;;;;16.27;9.20;;;;;;;;;;5037745;28;20033;-57
2022/01/19 13:50:36;;;;;;;17.90;10.40;;;;;;;;;;5027301;28;20037;-57
2022/01/19 13:53:03;;;;;;;17.95;9.93;;;;;;;;;;5027897;28;20046;-57
2022/01/19 13:55:29;;;;;;;17.88;10.50;;;;;;;;;;5031661;28;20115;-57
2022/01/19 13:58:12;;;;;;;17.85;10.68;;;;;;;;;;5023301;28;20033;-57
2022/01/19 14:00:58;;;;;;;16.98;9.85;;;;;;;;;;5030836;28;20029;-57
2022/01/19 14:03:26;;;;;;;19.55;11.70;;;;;;;;;;5026929;28;20048;-57
2022/01/19 14:05:53;;;;;;;19.45;10.38;;;;;;;;;;5041919;28;20033;-57
2022/01/19 14:08:29;;;;;;;18.80;10.50;;;;;;;;;;5046602;28;20045;-57
2022/01/19 14:10:55;;;;;;;17.95;9.75;;;;;;;;;;5047137;28;20108;-57
2022/01/19 14:13:26;;;;;;;17.02;9.18;;;;;;;;;;5048928;28;20025;-57
2022/01/19 14:15:53;;;;;;;16.05;9.07;;;;;;;;;;5038558;28;20033;-57
2022/01/19 14:18:20;;;;;;;17.08;9.88;;;;;;;;;;5047495;28;20051;-56
2022/01/19 14:20:46;;;;;;;17.33;9.98;;;;;;;;;;5049104;28;20435;-56
2022/01/19 14:23:13;;;;;;;17.42;10.20;;;;;;;;;;5047944;28;20028;-57
2022/01/19 14:25:40;;;;;;;18.75;10.60;;;;;;;;;;5036634;28;20412;-56
2022/01/19 14:28:13;;;;;;;20.23;10.82;;;;;;;;;;5034370;28;20104;-57
2022/01/19 14:30:41;;;;;;;21.27;10.50;;;;;;;;;;5039479;28;20032;-57
2022/01/19 14:33:09;;;;;;;19.42;10.25;;;;;;;;;;5049032;28;20056;-57
2022/01/19 14:35:37;;;;;;;16.92;9.65;;;;;;;;;;5048909;28;20077;-57
2022/01/19 14:38:03;;;;;;;18.20;10.13;;;;;;;;;;5049244;28;20124;-57
2022/01/19 14:40:31;;;;;;;17.98;10.20;;;;;;;;;;5047349;28;20109;-57
2022/01/19 14:42:58;;;;;;;18.42;10.80;;;;;;;;;;5048356;28;20095;-57
2022/01/19 14:45:27;;;;;;;17.70;9.80;;;;;;;;;;5047573;28;20409;-57
2022/01/19 14:47:54;;;;;;;15.85;9.57;;;;;;;;;;5049441;28;20035;-57
2022/01/19 14:50:22;;;;;;;18.13;10.15;;;;;;;;;;5050491;28;20033;-57
2022/01/19 14:52:49;;;;;;;18.75;10.15;;;;;;;;;;5049696;28;20036;-57
2022/01/19 14:55:28;;;;;;;20.15;10.82;;;;;;;;;;5049305;28;20021;-57
2022/01/19 14:57:54;;;;;;;16.85;10.13;;;;;;;;;;5067641;28;20101;-57
2022/01/19 15:00:21;;;;;;;18.48;10.30;;;;;;;;;;5059064;28;20021;-57
2022/01/19 15:02:51;;;;;;;17.48;10.07;;;;;;;;;;5048447;28;20051;-57
2022/01/19 15:05:20;;;;;;;19.45;10.77;;;;;;;;;;5057246;28;20036;-57
2022/01/19 15:07:46;;;;;;;22.17;11.15;;;;;;;;;;5069131;28;20519;-57
2022/01/19 15:10:12;;;;;;;22.23;12.48;;;;;;;;;;5053071;28;20040;-57
2022/01/19 15:12:39;;;;;;;20.58;11.27;;;;;;;;;;5046456;28;20404;-57
2022/01/19 15:15:06;;;;;;;18.15;10.32;;;;;;;;;;5048275;28;20033;-57
2022/01/19 15:17:32;;;;;;;15.68;9.38;;;;;;;;;;5048109;28;20049;-57
2022/01/19 15:19:58;;;;;;;17.67;9.73;;;;;;;;;;5048589;28;20407;-57
2022/01/19 15:22:26;;;;;;;20.48;11.30;;;;;;;;;;5048152;28;20104;-57
2022/01/19 15:24:54;;;;;;;20.38;10.80;;;;;;;;;;5047509;28;20834;-57
2022/01/19 15:27:21;;;;;;;18.83;10.98;;;;;;;;;;5047862;28;20545;-57
2022/01/19 15:29:49;;;;;;;20.77;11.25;;;;;;;;;;5046938;28;20039;-57
2022/01/19 15:32:15;;;;;;;18.63;9.52;;;;;;;;;;5048012;28;20156;-57
2022/01/19 15:34:41;;;;;;;18.38;10.55;;;;;;;;;;5049077;28;20024;-57
2022/01/19 15:37:07;;;;;;;17.58;9.43;;;;;;;;;;5048738;28;20029;-58
2022/01/19 15:39:35;;;;;;;16.08;9.25;;;;;;;;;;5047816;28;20029;-57
2022/01/19 15:42:02;;;;;;;17.38;10.00;;;;;;;;;;5047591;28;20024;-57
2022/01/19 15:44:28;;;;;;;17.20;9.93;;;;;;;;;;5047698;28;20040;-57
2022/01/19 15:46:54;;;;;;;17.17;9.30;;;;;;;;;;5046825;28;20512;-57
2022/01/19 15:49:20;;;;;;;18.70;10.27;;;;;;;;;;5043940;28;20041;-57
2022/01/19 15:51:46;;;;;;;17.77;10.70;;;;;;;;;;5028646;28;20462;-57
2022/01/19 15:54:14;;;;;;;21.33;11.45;;;;;;;;;;5047236;28;20464;-57
2022/01/19 15:56:41;;;;;;;21.35;12.15;;;;;;;;;;5046003;28;20021;-57